createdAt,value
2023-04-01T00:00:58.230Z,97211.20
2023-04-01T00:03:28.313Z,97207.00
2023-04-01T00:05:59.108Z,97212.80
2023-04-01T00:08:28.347Z,97210.60
2023-04-01T00:10:57.979Z,97212.80
2023-04-01T00:13:27.599Z,97208.40
2023-04-01T00:15:57.576Z,97215.40
2023-04-01T00:18:26.167Z,97213.00
2023-04-01T00:20:54.343Z,97212.60
2023-04-01T00:23:22.214Z,97211.60
2023-04-01T00:25:50.621Z,97215.00
2023-04-01T00:28:21.031Z,97211.00
2023-04-01T00:30:49.108Z,97212.40
2023-04-01T00:33:17.664Z,97212.20
2023-04-01T00:35:46.170Z,97218.00
2023-04-01T00:38:14.533Z,97222.00
2023-04-01T00:40:47.039Z,97223.40
2023-04-01T00:43:21.412Z,97219.40
2023-04-01T00:45:50.925Z,97215.40
2023-04-01T00:48:26.292Z,97215.00
2023-04-01T00:51:21.334Z,97217.60
2023-04-01T00:53:53.571Z,97220.00
2023-04-01T00:56:33.382Z,97219.20
2023-04-01T00:59:12.188Z,97218.20
2023-04-01T01:01:40.300Z,97216.00
2023-04-01T01:04:08.099Z,97218.80
2023-04-01T01:07:11.574Z,97215.40
2023-04-01T01:10:27.407Z,97224.80
2023-04-01T01:13:22.601Z,97217.20
2023-04-01T01:16:11.562Z,97216.00
2023-04-01T01:18:55.141Z,97215.80
2023-04-01T01:21:55.039Z,97207.80
2023-04-01T01:24:58.857Z,97210.60
2023-04-01T01:27:28.488Z,97212.60
2023-04-01T01:30:18.186Z,97210.20
2023-04-01T01:33:34.210Z,97209.60
2023-04-01T01:36:09.933Z,97207.40
2023-04-01T01:38:38.850Z,97204.20
2023-04-01T01:41:10.866Z,97207.60
2023-04-01T01:43:44.270Z,97212.40
2023-04-01T01:46:18.759Z,97208.60
2023-04-01T01:48:48.555Z,97206.60
2023-04-01T01:51:17.805Z,97205.20
2023-04-01T01:53:47.581Z,97200.80
2023-04-01T01:56:17.496Z,97198.60
2023-04-01T01:59:00.143Z,97201.60
2023-04-01T02:01:31.835Z,97204.40
2023-04-01T02:04:00.418Z,97198.60
2023-04-01T02:06:34.867Z,97199.80
2023-04-01T02:09:07.826Z,97197.40
2023-04-01T02:11:52.034Z,97195.60
2023-04-01T02:14:50.494Z,97195.00
2023-04-01T02:17:22.033Z,97198.80
2023-04-01T02:20:05.563Z,97195.80
2023-04-01T02:22:39.417Z,97196.60
2023-04-01T02:25:13.467Z,97200.40
2023-04-01T02:27:45.684Z,97199.40
2023-04-01T02:30:17.183Z,97200.80
2023-04-01T02:32:47.538Z,97203.80
2023-04-01T02:35:18.577Z,97204.00
2023-04-01T02:37:50.281Z,97208.80
2023-04-01T02:40:18.668Z,97205.60
2023-04-01T02:42:46.778Z,97207.80
2023-04-01T02:45:15.510Z,97213.40
2023-04-01T02:47:43.371Z,97211.80
2023-04-01T02:50:11.290Z,97213.80
2023-04-01T02:52:38.922Z,97219.20
2023-04-01T02:55:07.916Z,97221.20
2023-04-01T02:57:35.622Z,97228.20
2023-04-01T03:00:04.097Z,97227.60
2023-04-01T03:02:31.846Z,97225.80
2023-04-01T03:04:59.794Z,97228.80
2023-04-01T03:07:27.350Z,97228.20
2023-04-01T03:09:54.944Z,97226.40
2023-04-01T03:12:22.626Z,97230.00
2023-04-01T03:14:50.347Z,97227.20
2023-04-01T03:17:18.034Z,97232.80
2023-04-01T03:19:45.650Z,97230.80
2023-04-01T03:22:13.452Z,97232.00
2023-04-01T03:24:41.140Z,97230.60
2023-04-01T03:27:08.911Z,97236.00
2023-04-01T03:29:36.658Z,97235.80
2023-04-01T03:32:04.407Z,97233.80
2023-04-01T03:34:32.824Z,97236.00
2023-04-01T03:37:00.627Z,97238.80
2023-04-01T03:39:28.260Z,97238.00
2023-04-01T03:41:56.465Z,97235.40
2023-04-01T03:44:24.112Z,97236.40
2023-04-01T03:46:51.763Z,97238.40
2023-04-01T03:49:19.386Z,97238.60
2023-04-01T03:51:47.044Z,97239.40
2023-04-01T03:54:14.870Z,97236.60
2023-04-01T03:56:42.514Z,97245.20
2023-04-01T03:59:10.467Z,97240.60
2023-04-01T04:01:38.147Z,97245.40
2023-04-01T04:04:06.680Z,97247.60
2023-04-01T04:06:34.613Z,97246.60
2023-04-01T04:09:02.235Z,97254.40
2023-04-01T04:11:33.772Z,97258.40
2023-04-01T04:14:01.838Z,97256.00
2023-04-01T04:16:29.672Z,97252.80
2023-04-01T04:18:57.433Z,97254.80
2023-04-01T04:21:25.571Z,97261.20
2023-04-01T04:23:53.170Z,97260.40
2023-04-01T04:26:21.102Z,97258.00
2023-04-01T04:28:49.269Z,97263.00
2023-04-01T04:31:25.220Z,97260.60
2023-04-01T04:33:54.138Z,97260.00
2023-04-01T04:36:23.322Z,97251.60
2023-04-01T04:38:51.052Z,97257.20
2023-04-01T04:41:20.531Z,97254.40
2023-04-01T04:43:56.994Z,97256.20
2023-04-01T04:46:25.396Z,97254.40
2023-04-01T04:48:53.113Z,97250.80
2023-04-01T04:51:22.288Z,97254.20
2023-04-01T04:53:51.585Z,97255.60
2023-04-01T04:56:23.360Z,97256.40
2023-04-01T04:58:50.997Z,97258.20
2023-04-01T05:01:19.400Z,97256.60
2023-04-01T05:03:47.613Z,97258.40
2023-04-01T05:06:17.953Z,97262.60
2023-04-01T05:08:46.364Z,97258.80
2023-04-01T05:11:19.905Z,97260.60
2023-04-01T05:13:48.129Z,97258.60
2023-04-01T05:16:20.327Z,97263.00
2023-04-01T05:18:48.636Z,97265.20
2023-04-01T05:21:16.921Z,97262.20
2023-04-01T05:23:44.838Z,97263.20
2023-04-01T05:26:15.648Z,97262.20
2023-04-01T05:28:43.668Z,97260.60
2023-04-01T05:31:11.753Z,97261.80
2023-04-01T05:33:39.764Z,97258.00
2023-04-01T05:36:14.390Z,97264.00
2023-04-01T05:38:43.442Z,97264.00
2023-04-01T05:41:11.190Z,97267.00
2023-04-01T05:43:41.026Z,97266.60
2023-04-01T05:46:09.037Z,97265.00
2023-04-01T05:48:36.858Z,97261.40
2023-04-01T05:51:05.728Z,97262.60
2023-04-01T05:53:33.509Z,97266.00
2023-04-01T05:56:05.093Z,97266.60
2023-04-01T05:58:32.786Z,97266.60
2023-04-01T06:01:19.716Z,97267.40
2023-04-01T06:03:47.704Z,97266.00
2023-04-01T06:06:24.106Z,97273.60
2023-04-01T06:08:54.229Z,97275.60
2023-04-01T06:12:02.243Z,97272.80
2023-04-01T06:15:08.567Z,97279.80
2023-04-01T06:17:36.501Z,97278.60
2023-04-01T06:20:07.850Z,97280.00
2023-04-01T06:23:09.431Z,97282.40
2023-04-01T06:25:57.155Z,97283.60
2023-04-01T06:28:30.706Z,97276.20
2023-04-01T06:31:27.647Z,97283.80
2023-04-01T06:34:20.924Z,97282.00
2023-04-01T06:37:08.894Z,97282.60
2023-04-01T06:40:02.838Z,97282.00
2023-04-01T06:43:07.211Z,97289.20
2023-04-01T06:46:02.263Z,97293.40
2023-04-01T06:48:45.461Z,97289.80
2023-04-01T06:52:02.600Z,97294.60
2023-04-01T06:54:37.325Z,97291.40
2023-04-01T06:57:25.103Z,97301.20
2023-04-01T06:59:59.500Z,97305.40
2023-04-01T07:02:42.662Z,97305.00
2023-04-01T07:05:13.063Z,97307.00
2023-04-01T07:07:46.001Z,97307.00
2023-04-01T07:10:23.831Z,97309.00
2023-04-01T07:12:57.223Z,97308.00
2023-04-01T07:15:40.618Z,97307.40
2023-04-01T07:18:33.408Z,97313.20
2023-04-01T07:21:03.297Z,97311.80
2023-04-01T07:23:40.238Z,97308.40
2023-04-01T07:26:25.107Z,97318.40
2023-04-01T07:28:54.548Z,97319.20
2023-04-01T07:31:49.832Z,97317.60
2023-04-01T07:34:30.915Z,97318.40
2023-04-01T07:37:07.851Z,97324.20
2023-04-01T07:40:15.875Z,97325.80
2023-04-01T07:43:05.974Z,97325.80
2023-04-01T07:46:09.599Z,97322.80
2023-04-01T07:48:56.890Z,97324.00
2023-04-01T07:51:57.263Z,97320.60
2023-04-01T07:54:58.019Z,97326.40
2023-04-01T07:57:44.554Z,97327.80
2023-04-01T08:00:23.730Z,97330.80
2023-04-01T08:03:16.145Z,97330.60
2023-04-01T08:06:03.892Z,97332.40
2023-04-01T08:09:00.971Z,97333.00
2023-04-01T08:12:09.034Z,97333.20
2023-04-01T08:14:45.296Z,97330.40
2023-04-01T08:17:36.265Z,97337.80
2023-04-01T08:20:46.537Z,97339.20
2023-04-01T08:23:23.759Z,97338.20
2023-04-01T08:25:57.454Z,97341.40
2023-04-01T08:28:47.473Z,97340.20
2023-04-01T08:31:27.601Z,97345.80
2023-04-01T08:33:56.526Z,97346.40
2023-04-01T08:36:36.986Z,97343.20
2023-04-01T08:39:16.488Z,97348.80
2023-04-01T08:41:52.889Z,97345.60
2023-04-01T08:44:45.677Z,97341.00
2023-04-01T08:47:38.830Z,97339.40
2023-04-01T08:50:27.945Z,97333.80
2023-04-01T08:53:16.744Z,97333.00
2023-04-01T08:56:02.814Z,97333.40
2023-04-01T08:59:12.860Z,97335.00
2023-04-01T09:02:47.981Z,97335.60
2023-04-01T09:05:44.813Z,97337.80
2023-04-01T09:08:26.960Z,97338.60
2023-04-01T09:11:11.041Z,97337.40
2023-04-01T09:14:18.557Z,97337.40
2023-04-01T09:17:26.045Z,97343.20
2023-04-01T09:20:02.740Z,97337.60
2023-04-01T09:22:58.598Z,97340.20
2023-04-01T09:26:03.633Z,97337.80
2023-04-01T09:29:02.603Z,97337.80
2023-04-01T09:32:28.027Z,97338.60
2023-04-01T09:35:15.578Z,97334.00
2023-04-01T09:38:12.985Z,97340.40
2023-04-01T09:41:16.941Z,97338.60
2023-04-01T09:44:04.380Z,97339.80
2023-04-01T09:47:07.081Z,97342.00
2023-04-01T09:49:59.415Z,97338.80
2023-04-01T09:52:56.213Z,97345.00
2023-04-01T09:56:14.034Z,97352.00
2023-04-01T09:59:11.699Z,97351.60
2023-04-01T10:02:43.510Z,97351.60
2023-04-01T10:05:36.869Z,97355.40
2023-04-01T10:08:36.881Z,97353.60
2023-04-01T10:11:12.226Z,97351.40
2023-04-01T10:14:01.391Z,97350.60
2023-04-01T10:17:26.603Z,97351.80
2023-04-01T10:20:47.150Z,97349.20
2023-04-01T10:23:31.245Z,97351.80
2023-04-01T10:26:27.320Z,97350.20
2023-04-01T10:29:11.869Z,97350.60
2023-04-01T10:32:10.922Z,97349.80
2023-04-01T10:35:09.030Z,97351.40
2023-04-01T10:38:14.878Z,97343.40
2023-04-01T10:41:24.487Z,97348.00
2023-04-01T10:44:10.673Z,97338.00
2023-04-01T10:47:35.503Z,97341.40
2023-04-01T10:50:31.313Z,97341.80
2023-04-01T10:53:14.069Z,97338.00
2023-04-01T10:56:16.503Z,97337.60
2023-04-01T10:58:57.055Z,97338.40
2023-04-01T11:01:57.640Z,97337.80
2023-04-01T11:05:06.401Z,97338.20
2023-04-01T11:07:45.140Z,97339.20
2023-04-01T11:10:58.780Z,97335.20
2023-04-01T11:13:54.010Z,97336.80
2023-04-01T11:17:04.997Z,97333.00
2023-04-01T11:19:57.680Z,97336.20
2023-04-01T11:22:46.629Z,97335.00
2023-04-01T11:25:43.206Z,97331.00
2023-04-01T11:28:19.683Z,97340.60
2023-04-01T11:31:05.805Z,97341.00
2023-04-01T11:33:56.751Z,97344.20
2023-04-01T11:37:10.907Z,97340.20
2023-04-01T11:39:44.547Z,97342.80
2023-04-01T11:42:33.933Z,97345.40
2023-04-01T11:45:37.928Z,97343.60
2023-04-01T11:48:54.174Z,97351.00
2023-04-01T11:52:18.616Z,97354.00
2023-04-01T11:55:06.181Z,97352.80
2023-04-01T11:58:27.124Z,97351.60
2023-04-01T12:01:27.959Z,97354.80
2023-04-01T12:04:28.825Z,97352.40
2023-04-01T12:07:14.505Z,97362.80
2023-04-01T12:09:53.494Z,97366.00
2023-04-01T12:13:00.654Z,97370.20
2023-04-01T12:15:59.646Z,97380.80
2023-04-01T12:18:42.186Z,97385.20
2023-04-01T12:21:39.139Z,97389.40
2023-04-01T12:24:22.086Z,97392.60
2023-04-01T12:27:08.189Z,97394.80
2023-04-01T12:30:15.627Z,97399.40
2023-04-01T12:33:22.226Z,97401.40
2023-04-01T12:36:45.591Z,97397.40
2023-04-01T12:39:54.089Z,97401.60
2023-04-01T12:42:56.933Z,97403.60
2023-04-01T12:45:37.048Z,97409.40
2023-04-01T12:48:40.711Z,97405.80
2023-04-01T12:51:57.588Z,97401.40
2023-04-01T12:54:49.909Z,97402.00
2023-04-01T12:57:44.667Z,97406.40
2023-04-01T13:00:46.906Z,97410.00
2023-04-01T13:03:20.714Z,97409.00
2023-04-01T13:06:25.826Z,97414.80
2023-04-01T13:09:30.429Z,97417.80
2023-04-01T13:11:58.024Z,97422.40
2023-04-01T13:15:06.715Z,97419.00
2023-04-01T13:18:18.530Z,97426.40
2023-04-01T13:21:22.024Z,97426.00
2023-04-01T13:24:30.744Z,97429.80
2023-04-01T13:27:22.430Z,97432.20
2023-04-01T13:30:23.853Z,97431.40
2023-04-01T13:33:30.719Z,97428.20
2023-04-01T13:36:41.320Z,97428.80
2023-04-01T13:39:26.202Z,97427.40
2023-04-01T13:42:39.004Z,97425.60
2023-04-01T13:45:37.578Z,97429.40
2023-04-01T13:48:33.874Z,97430.20
2023-04-01T13:51:20.196Z,97427.60
2023-04-01T13:54:35.468Z,97428.20
2023-04-01T13:57:24.916Z,97430.60
2023-04-01T14:00:28.651Z,97434.80
2023-04-01T14:03:42.735Z,97438.20
2023-04-01T14:06:40.465Z,97434.80
2023-04-01T14:09:46.045Z,97435.80
2023-04-01T14:12:50.256Z,97441.60
2023-04-01T14:15:43.978Z,97440.80
2023-04-01T14:19:13.115Z,97441.80
2023-04-01T14:22:13.262Z,97447.60
2023-04-01T14:25:05.563Z,97447.40
2023-04-01T14:28:12.943Z,97450.40
2023-04-01T14:31:24.305Z,97453.40
2023-04-01T14:34:29.016Z,97457.60
2023-04-01T14:37:14.153Z,97455.80
2023-04-01T14:40:13.302Z,97453.20
2023-04-01T14:43:20.051Z,97461.00
2023-04-01T14:45:53.405Z,97461.80
2023-04-01T14:49:00.382Z,97459.00
2023-04-01T14:51:39.614Z,97460.40
2023-04-01T14:54:23.715Z,97457.60
2023-04-01T14:57:12.360Z,97461.20
2023-04-01T14:59:49.049Z,97455.60
2023-04-01T15:02:50.608Z,97466.80
2023-04-01T15:06:06.374Z,97472.00
2023-04-01T15:08:45.491Z,97469.40
2023-04-01T15:11:42.591Z,97469.80
2023-04-01T15:14:39.459Z,97479.80
2023-04-01T15:17:29.802Z,97478.00
2023-04-01T15:20:27.418Z,97476.40
2023-04-01T15:23:28.880Z,97484.20
2023-04-01T15:26:31.960Z,97479.20
2023-04-01T15:29:58.829Z,97483.40
2023-04-01T15:32:57.473Z,97489.60
2023-04-01T15:35:46.749Z,97492.00
2023-04-01T15:38:51.579Z,97495.80
2023-04-01T15:41:42.203Z,97497.80
2023-04-01T15:45:07.172Z,97496.40
2023-04-01T15:47:42.345Z,97491.80
2023-04-01T15:51:05.258Z,97496.40
2023-04-01T15:54:07.148Z,97498.00
2023-04-01T15:57:03.489Z,97504.20
2023-04-01T16:00:03.424Z,97501.80
2023-04-01T16:02:52.219Z,97507.40
2023-04-01T16:05:28.809Z,97522.40
2023-04-01T16:08:08.610Z,97523.60
2023-04-01T16:10:51.176Z,97529.20
2023-04-01T16:13:39.901Z,97535.40
2023-04-01T16:16:52.532Z,97539.20
2023-04-01T16:19:42.783Z,97547.60
2023-04-01T16:22:24.105Z,97551.20
2023-04-01T16:25:18.668Z,97544.80
2023-04-01T16:28:11.057Z,97554.60
2023-04-01T16:30:48.931Z,97558.40
2023-04-01T16:33:35.134Z,97559.80
2023-04-01T16:36:21.518Z,97566.20
2023-04-01T16:39:30.660Z,97573.00
2023-04-01T16:42:07.380Z,97570.40
2023-04-01T16:45:36.743Z,97578.60
2023-04-01T16:48:17.368Z,97587.00
2023-04-01T16:51:03.729Z,97583.80
2023-04-01T16:53:54.970Z,97586.00
2023-04-01T16:56:28.522Z,97590.80
2023-04-01T16:59:07.474Z,97595.20
2023-04-01T17:02:02.908Z,97596.80
2023-04-01T17:04:48.010Z,97604.20
2023-04-01T17:07:48.556Z,97609.00
2023-04-01T17:10:59.224Z,97613.60
2023-04-01T17:14:10.627Z,97615.40
2023-04-01T17:17:45.457Z,97621.40
2023-04-01T17:20:41.150Z,97622.00
2023-04-01T17:23:27.977Z,97624.80
2023-04-01T17:26:22.880Z,97629.00
2023-04-01T17:29:25.961Z,97629.80
2023-04-01T17:32:08.934Z,97629.60
2023-04-01T17:35:26.544Z,97638.60
2023-04-01T17:38:37.498Z,97642.80
2023-04-01T17:41:32.759Z,97640.80
2023-04-01T17:44:22.892Z,97645.80
2023-04-01T17:47:32.650Z,97642.00
2023-04-01T17:50:17.295Z,97645.40
2023-04-01T17:53:25.814Z,97653.40
2023-04-01T17:56:15.379Z,97664.20
2023-04-01T17:58:59.954Z,97671.20
2023-04-01T18:01:47.308Z,97678.60
2023-04-01T18:04:43.093Z,97679.80
2023-04-01T18:07:37.046Z,97678.40
2023-04-01T18:10:42.059Z,97692.40
2023-04-01T18:13:15.908Z,97688.60
2023-04-01T18:16:02.651Z,97697.60
2023-04-01T18:19:33.785Z,97700.40
2023-04-01T18:22:19.958Z,97700.60
2023-04-01T18:25:12.542Z,97711.20
2023-04-01T18:28:36.332Z,97710.60
2023-04-01T18:31:03.937Z,97714.20
2023-04-01T18:34:17.765Z,97716.00
2023-04-01T18:37:13.266Z,97720.00
2023-04-01T18:39:52.802Z,97721.80
2023-04-01T18:42:42.535Z,97724.00
2023-04-01T18:45:58.487Z,97724.60
2023-04-01T18:49:03.761Z,97729.80
2023-04-01T18:51:54.865Z,97731.60
2023-04-01T18:54:35.795Z,97737.40
2023-04-01T18:57:14.135Z,97737.00
2023-04-01T18:59:56.534Z,97738.40
2023-04-01T19:02:45.391Z,97742.60
2023-04-01T19:05:39.714Z,97743.00
2023-04-01T19:08:32.693Z,97748.00
2023-04-01T19:11:36.693Z,97750.20
2023-04-01T19:14:49.652Z,97750.80
2023-04-01T19:17:43.691Z,97752.80
2023-04-01T19:20:57.800Z,97755.20
2023-04-01T19:24:18.616Z,97759.20
2023-04-01T19:27:35.535Z,97759.20
2023-04-01T19:30:25.012Z,97759.00
2023-04-01T19:33:20.803Z,97765.60
2023-04-01T19:36:00.665Z,97766.20
2023-04-01T19:38:40.302Z,97768.00
2023-04-01T19:41:52.676Z,97769.80
2023-04-01T19:44:54.300Z,97773.80
2023-04-01T19:47:52.989Z,97780.40
2023-04-01T19:50:50.766Z,97777.60
2023-04-01T19:53:38.528Z,97779.60
2023-04-01T19:56:19.465Z,97787.00
2023-04-01T19:58:57.676Z,97786.60
2023-04-01T20:01:44.793Z,97794.60
2023-04-01T20:04:27.819Z,97794.80
2023-04-01T20:07:10.599Z,97796.80
2023-04-01T20:09:53.898Z,97803.40
2023-04-01T20:12:46.197Z,97808.00
2023-04-01T20:15:28.131Z,97803.20
2023-04-01T20:18:01.078Z,97817.60
2023-04-01T20:20:32.734Z,97817.40
2023-04-01T20:23:40.445Z,97820.20
2023-04-01T20:26:22.071Z,97819.40
2023-04-01T20:29:22.839Z,97825.00
2023-04-01T20:32:09.418Z,97823.40
2023-04-01T20:34:41.949Z,97831.20
2023-04-01T20:37:38.871Z,97828.00
2023-04-01T20:40:44.062Z,97833.20
2023-04-01T20:43:33.830Z,97835.60
2023-04-01T20:46:28.197Z,97835.40
2023-04-01T20:49:29.245Z,97834.20
2023-04-01T20:52:18.659Z,97835.40
2023-04-01T20:55:21.266Z,97829.60
2023-04-01T20:58:21.452Z,97833.00
2023-04-01T21:01:07.228Z,97836.00
2023-04-01T21:04:11.556Z,97838.60
2023-04-01T21:07:21.825Z,97841.40
2023-04-01T21:10:26.948Z,97843.80
2023-04-01T21:13:18.153Z,97846.80
2023-04-01T21:16:20.088Z,97850.60
2023-04-01T21:19:26.661Z,97855.20
2023-04-01T21:22:32.683Z,97865.00
2023-04-01T21:26:06.930Z,97862.60
2023-04-01T21:29:11.936Z,97864.60
2023-04-01T21:31:58.005Z,97873.80
2023-04-01T21:34:52.670Z,97870.60
2023-04-01T21:37:46.395Z,97873.20
2023-04-01T21:41:17.646Z,97878.60
2023-04-01T21:44:20.545Z,97881.40
2023-04-01T21:47:05.179Z,97881.60
2023-04-01T21:50:06.524Z,97883.80
2023-04-01T21:53:13.094Z,97880.00
2023-04-01T21:56:23.648Z,97884.00
2023-04-01T21:59:25.289Z,97884.40
2023-04-01T22:02:11.628Z,97888.20
2023-04-01T22:05:08.341Z,97891.20
2023-04-01T22:08:18.284Z,97897.40
2023-04-01T22:11:02.380Z,97895.80
2023-04-01T22:13:44.207Z,97897.80
2023-04-01T22:17:04.222Z,97896.80
2023-04-01T22:19:51.886Z,97900.20
2023-04-01T22:22:39.537Z,97902.00
2023-04-01T22:25:27.302Z,97906.00
2023-04-01T22:28:20.441Z,97907.00
2023-04-01T22:31:02.148Z,97908.80
2023-04-01T22:34:06.702Z,97912.00
2023-04-01T22:36:58.930Z,97911.80
2023-04-01T22:39:54.803Z,97914.80
2023-04-01T22:42:43.258Z,97918.80
2023-04-01T22:45:13.902Z,97915.60
2023-04-01T22:48:12.558Z,97916.60
2023-04-01T22:50:58.576Z,97924.00
2023-04-01T22:53:45.928Z,97921.40
2023-04-01T22:56:24.725Z,97926.00
2023-04-01T22:59:05.385Z,97924.60
2023-04-01T23:01:46.625Z,97923.80
2023-04-01T23:04:22.729Z,97931.80
2023-04-01T23:06:58.701Z,97928.20
2023-04-01T23:09:34.607Z,97935.40
2023-04-01T23:12:15.073Z,97942.00
2023-04-01T23:14:56.110Z,97941.40
2023-04-01T23:17:48.060Z,97946.00
2023-04-01T23:20:51.332Z,97949.40
2023-04-01T23:23:51.704Z,97953.00
2023-04-01T23:26:34.990Z,97946.60
2023-04-01T23:29:05.447Z,97947.40
2023-04-01T23:31:39.554Z,97949.00
2023-04-01T23:34:12.962Z,97948.80
2023-04-01T23:36:49.001Z,97949.00
2023-04-01T23:39:46.472Z,97950.80
2023-04-01T23:42:41.470Z,97953.00
2023-04-01T23:45:21.547Z,97959.00
2023-04-01T23:47:51.382Z,97959.40
2023-04-01T23:50:26.325Z,97958.40
2023-04-01T23:53:04.042Z,97962.20
2023-04-01T23:55:35.997Z,97970.40
2023-04-01T23:58:17.291Z,97974.00
